createdAt,value
2022-12-26T00:01:57.230Z,18.50
2022-12-26T00:04:49.352Z,18.43
2022-12-26T00:07:11.661Z,18.57
2022-12-26T00:09:38.722Z,19.73
2022-12-26T00:12:06.294Z,21.47
2022-12-26T00:14:33.405Z,20.00
2022-12-26T00:17:00.541Z,18.37
2022-12-26T00:19:27.677Z,18.37
2022-12-26T00:21:54.796Z,19.03
2022-12-26T00:24:21.951Z,19.70
2022-12-26T00:26:49.163Z,17.50
2022-12-26T00:29:16.320Z,14.47
2022-12-26T00:31:43.471Z,16.37
2022-12-26T00:34:10.954Z,18.43
2022-12-26T00:36:37.973Z,15.00
2022-12-26T00:39:05.024Z,14.30
2022-12-26T00:41:32.865Z,15.83
2022-12-26T00:44:00.085Z,19.20
2022-12-26T00:46:28.518Z,12.77
2022-12-26T00:48:56.027Z,16.23
2022-12-26T00:51:23.192Z,13.23
2022-12-26T00:53:50.397Z,17.07
2022-12-26T00:56:17.823Z,15.73
2022-12-26T00:58:45.011Z,11.90
2022-12-26T01:01:23.414Z,11.03
2022-12-26T01:03:51.559Z,12.73
2022-12-26T01:06:19.123Z,12.57
2022-12-26T01:08:46.350Z,13.50
2022-12-26T01:11:36.324Z,11.80
2022-12-26T01:14:04.435Z,10.13
2022-12-26T01:16:31.637Z,10.27
2022-12-26T01:18:58.775Z,12.03
2022-12-26T01:21:25.789Z,10.87
2022-12-26T01:23:52.924Z,8.20
2022-12-26T01:26:20.244Z,8.97
2022-12-26T01:28:53.429Z,11.60
2022-12-26T01:31:21.984Z,14.87
2022-12-26T01:33:49.467Z,7.37
2022-12-26T01:36:18.412Z,9.47
2022-12-26T01:38:46.347Z,8.20
2022-12-26T01:41:17.340Z,13.50
2022-12-26T01:43:53.838Z,11.80
2022-12-26T01:46:45.042Z,9.87
2022-12-26T01:49:33.886Z,8.30
2022-12-26T01:52:09.621Z,8.60
2022-12-26T01:54:42.931Z,9.33
2022-12-26T01:57:27.504Z,7.23
2022-12-26T01:59:57.392Z,7.50
2022-12-26T02:02:29.122Z,7.43
2022-12-26T02:05:16.481Z,6.73
2022-12-26T02:07:47.072Z,6.77
2022-12-26T02:10:22.160Z,6.27
2022-12-26T02:12:50.625Z,6.23
2022-12-26T02:15:18.820Z,8.60
2022-12-26T02:17:48.951Z,6.70
2022-12-26T02:20:40.093Z,7.87
2022-12-26T02:24:31.292Z,8.73
2022-12-26T02:27:24.595Z,7.50
2022-12-26T02:30:28.697Z,10.30
2022-12-26T02:33:29.011Z,6.43
2022-12-26T02:36:31.458Z,10.20
2022-12-26T02:40:01.795Z,5.27
2022-12-26T02:43:08.909Z,6.80
2022-12-26T02:46:31.526Z,10.67
2022-12-26T02:50:07.639Z,6.37
2022-12-26T02:53:24.281Z,5.60
2022-12-26T02:56:24.473Z,6.70
2022-12-26T03:00:07.780Z,7.40
2022-12-26T03:03:18.390Z,5.43
2022-12-26T03:06:38.665Z,7.97
2022-12-26T03:09:41.153Z,5.60
2022-12-26T03:13:13.442Z,4.37
2022-12-26T03:16:32.405Z,4.50
2022-12-26T03:19:10.062Z,6.40
2022-12-26T03:21:45.389Z,7.13
2022-12-26T03:24:16.986Z,7.10
2022-12-26T03:26:54.451Z,5.20
2022-12-26T03:29:42.530Z,9.67
2022-12-26T03:32:13.054Z,6.47
2022-12-26T03:34:45.023Z,6.93
2022-12-26T03:37:48.404Z,5.60
2022-12-26T03:41:10.918Z,6.67
2022-12-26T03:44:17.176Z,7.90
2022-12-26T03:48:04.386Z,6.93
2022-12-26T03:51:10.698Z,8.13
2022-12-26T03:54:19.334Z,6.00
2022-12-26T03:57:31.340Z,8.40
2022-12-26T04:00:30.411Z,6.13
2022-12-26T04:03:28.879Z,5.53
2022-12-26T04:06:17.180Z,11.47
2022-12-26T04:09:33.330Z,6.40
2022-12-26T04:12:20.607Z,5.53
2022-12-26T04:15:30.258Z,6.13
2022-12-26T04:18:33.818Z,5.83
2022-12-26T04:21:52.386Z,6.87
2022-12-26T04:24:48.655Z,6.80
2022-12-26T04:27:40.595Z,6.67
2022-12-26T04:30:27.682Z,4.17
2022-12-26T04:33:24.207Z,4.40
2022-12-26T04:36:23.027Z,3.37
2022-12-26T04:39:18.239Z,5.57
2022-12-26T04:42:05.296Z,5.37
2022-12-26T04:44:35.183Z,6.13
2022-12-26T04:47:02.238Z,3.77
2022-12-26T04:49:47.825Z,3.60
2022-12-26T04:52:15.677Z,4.47
2022-12-26T04:54:43.245Z,4.07
2022-12-26T04:57:11.701Z,6.53
2022-12-26T04:59:38.735Z,6.03
2022-12-26T05:02:24.534Z,6.17
2022-12-26T05:05:10.321Z,7.37
2022-12-26T05:07:56.520Z,7.27
2022-12-26T05:10:28.730Z,6.77
2022-12-26T05:12:56.114Z,8.77
2022-12-26T05:15:23.519Z,8.40
2022-12-26T05:18:09.054Z,7.33
2022-12-26T05:20:54.796Z,6.83
2022-12-26T05:23:45.279Z,9.83
2022-12-26T05:26:40.621Z,6.70
2022-12-26T05:29:08.081Z,6.47
2022-12-26T05:31:36.835Z,6.57
2022-12-26T05:34:12.090Z,5.63
2022-12-26T05:36:51.475Z,6.03
2022-12-26T05:39:19.041Z,5.20
2022-12-26T05:41:46.180Z,7.70
2022-12-26T05:44:13.412Z,9.83
2022-12-26T05:46:42.544Z,8.80
2022-12-26T05:49:10.330Z,6.47
2022-12-26T05:51:37.581Z,8.80
2022-12-26T05:54:05.540Z,7.53
2022-12-26T05:56:32.677Z,8.43
2022-12-26T05:59:01.873Z,8.57
2022-12-26T06:01:30.717Z,9.07
2022-12-26T06:04:00.586Z,10.03
2022-12-26T06:06:28.345Z,7.90
2022-12-26T06:08:57.397Z,6.70
2022-12-26T06:11:26.989Z,10.73
2022-12-26T06:13:55.004Z,9.50
2022-12-26T06:16:22.484Z,8.10
2022-12-26T06:18:49.660Z,7.97
2022-12-26T06:21:20.230Z,8.30
2022-12-26T06:23:48.447Z,8.67
2022-12-26T06:26:16.880Z,11.07
2022-12-26T06:28:45.263Z,5.77
2022-12-26T06:31:20.448Z,8.70
2022-12-26T06:33:57.967Z,10.67
2022-12-26T06:36:27.493Z,8.77
2022-12-26T06:38:55.440Z,10.07
2022-12-26T06:41:24.968Z,7.27
2022-12-26T06:43:52.968Z,9.17
2022-12-26T06:46:24.254Z,8.60
2022-12-26T06:48:52.222Z,10.13
2022-12-26T06:51:26.884Z,7.00
2022-12-26T06:53:54.656Z,7.50
2022-12-26T06:56:26.614Z,6.70
2022-12-26T06:58:59.925Z,8.77
2022-12-26T07:01:30.567Z,7.20
2022-12-26T07:03:58.909Z,9.37
2022-12-26T07:06:35.465Z,7.87
2022-12-26T07:09:09.840Z,5.57
2022-12-26T07:11:41.954Z,9.10
2022-12-26T07:14:09.657Z,6.23
2022-12-26T07:16:39.480Z,7.20
2022-12-26T07:19:07.376Z,5.50
2022-12-26T07:21:40.111Z,6.67
2022-12-26T07:24:22.360Z,5.63
2022-12-26T07:26:50.147Z,5.73
2022-12-26T07:29:17.919Z,6.23
2022-12-26T07:31:45.750Z,6.33
2022-12-26T07:34:12.912Z,4.40
2022-12-26T07:36:41.487Z,12.17
2022-12-26T07:39:08.794Z,8.40
2022-12-26T07:41:54.610Z,7.33
2022-12-26T07:44:21.640Z,5.97
2022-12-26T07:46:49.056Z,8.63
2022-12-26T07:49:16.742Z,9.43
2022-12-26T07:51:44.001Z,7.33
2022-12-26T07:54:12.115Z,7.23
2022-12-26T07:56:41.302Z,7.60
2022-12-26T07:59:16.370Z,9.63
2022-12-26T08:01:44.508Z,8.63
2022-12-26T08:04:13.509Z,7.33
2022-12-26T08:06:40.616Z,8.47
2022-12-26T08:09:17.933Z,6.93
2022-12-26T08:11:45.462Z,6.90
2022-12-26T08:14:14.146Z,5.17
2022-12-26T08:16:41.331Z,7.03
2022-12-26T08:19:08.712Z,5.57
2022-12-26T08:21:35.976Z,7.37
2022-12-26T08:24:03.175Z,8.33
2022-12-26T08:26:30.261Z,4.80
2022-12-26T08:28:58.141Z,4.57
2022-12-26T08:33:57.735Z,4.93
2022-12-26T08:36:25.329Z,8.43
2022-12-26T08:38:52.998Z,7.77
2022-12-26T08:41:20.460Z,6.57
2022-12-26T08:46:40.222Z,8.37
2022-12-26T08:49:07.373Z,7.20
2022-12-26T08:51:36.479Z,7.67
2022-12-26T08:54:03.873Z,6.83
2022-12-26T08:56:31.481Z,9.50
2022-12-26T08:58:58.631Z,8.83
2022-12-26T09:01:29.780Z,7.87
2022-12-26T09:04:02.257Z,7.80
2022-12-26T09:06:34.281Z,8.43
2022-12-26T09:09:06.187Z,7.53
2022-12-26T09:11:33.727Z,6.37
2022-12-26T09:14:04.231Z,6.17
2022-12-26T09:16:43.016Z,5.27
2022-12-26T09:19:18.908Z,8.17
2022-12-26T09:21:48.398Z,7.67
2022-12-26T09:24:18.462Z,5.20
2022-12-26T09:26:45.912Z,4.63
2022-12-26T09:29:15.503Z,4.57
2022-12-26T09:31:42.626Z,4.00
2022-12-26T09:34:09.811Z,3.50
2022-12-26T09:36:39.171Z,3.80
2022-12-26T09:39:07.506Z,5.10
2022-12-26T09:42:06.028Z,8.10
2022-12-26T09:45:15.127Z,5.67
2022-12-26T09:48:19.492Z,6.43
2022-12-26T09:50:51.607Z,8.03
2022-12-26T09:53:34.972Z,6.87
2022-12-26T09:56:23.780Z,4.23
2022-12-26T09:59:17.821Z,5.10
2022-12-26T10:01:50.351Z,3.50
2022-12-26T10:04:29.886Z,3.03
2022-12-26T10:07:42.618Z,3.20
2022-12-26T10:10:45.694Z,5.27
2022-12-26T10:13:48.043Z,3.50
2022-12-26T10:17:06.184Z,5.40
2022-12-26T10:19:54.789Z,5.37
2022-12-26T10:23:45.427Z,2.97
2022-12-26T10:26:36.094Z,3.60
2022-12-26T10:29:08.965Z,5.53
2022-12-26T10:31:54.021Z,5.10
2022-12-26T10:34:36.518Z,5.00
2022-12-26T10:37:34.987Z,4.27
2022-12-26T10:40:39.188Z,4.67
2022-12-26T10:43:30.255Z,4.53
2022-12-26T10:46:06.043Z,4.03
2022-12-26T10:48:33.472Z,3.80
2022-12-26T10:51:00.520Z,4.43
2022-12-26T10:53:27.889Z,3.33
2022-12-26T10:55:57.096Z,3.20
2022-12-26T10:58:35.845Z,3.43
2022-12-26T11:01:40.101Z,4.70
2022-12-26T11:07:17.544Z,4.37
2022-12-26T11:09:46.113Z,3.83
2022-12-26T11:12:47.200Z,7.37
2022-12-26T11:15:39.464Z,4.67
2022-12-26T11:18:46.477Z,5.60
2022-12-26T11:21:19.519Z,7.00
2022-12-26T11:23:52.631Z,3.60
2022-12-26T11:26:29.698Z,4.73
2022-12-26T11:29:25.658Z,4.90
2022-12-26T11:32:04.884Z,7.63
2022-12-26T11:34:46.419Z,11.50
2022-12-26T11:37:34.352Z,6.27
2022-12-26T11:40:01.665Z,9.63
2022-12-26T11:42:28.963Z,4.87
2022-12-26T11:44:57.836Z,4.07
2022-12-26T11:47:29.888Z,4.20
2022-12-26T11:50:12.112Z,3.33
2022-12-26T11:52:56.900Z,3.57
2022-12-26T11:55:24.241Z,4.83
2022-12-26T11:58:17.982Z,4.90
2022-12-26T12:00:50.908Z,2.87
2022-12-26T12:03:50.057Z,4.17
2022-12-26T12:06:46.353Z,3.70
2022-12-26T12:09:41.680Z,5.30
2022-12-26T12:12:58.091Z,3.93
2022-12-26T12:16:12.314Z,3.37
2022-12-26T12:19:51.087Z,4.30
2022-12-26T12:22:45.007Z,4.13
2022-12-26T12:26:11.692Z,3.60
2022-12-26T12:29:34.429Z,3.10
2022-12-26T12:33:06.347Z,3.40
2022-12-26T12:36:00.542Z,4.97
2022-12-26T12:39:00.868Z,3.77
2022-12-26T12:42:08.935Z,3.93
2022-12-26T12:46:02.059Z,4.87
2022-12-26T12:49:07.669Z,7.70
2022-12-26T12:52:09.410Z,19.60
2022-12-26T12:55:21.404Z,8.30
2022-12-26T12:58:07.474Z,8.90
2022-12-26T13:00:56.010Z,6.30
2022-12-26T13:03:48.874Z,7.77
2022-12-26T13:06:46.324Z,7.43
2022-12-26T13:09:42.687Z,15.90
2022-12-26T13:12:36.935Z,7.27
2022-12-26T13:15:22.401Z,4.37
2022-12-26T13:18:07.838Z,5.00
2022-12-26T13:20:58.601Z,5.37
2022-12-26T13:23:51.427Z,4.00
2022-12-26T13:26:31.068Z,4.40
2022-12-26T13:29:26.084Z,4.80
2022-12-26T13:31:53.387Z,5.70
2022-12-26T13:34:21.447Z,4.87
2022-12-26T13:36:55.924Z,4.53
2022-12-26T13:39:26.222Z,4.17
2022-12-26T13:42:29.245Z,4.83
2022-12-26T13:45:16.361Z,5.07
2022-12-26T13:47:43.495Z,3.70
2022-12-26T13:50:56.623Z,8.47
2022-12-26T13:53:33.997Z,3.10
2022-12-26T13:56:30.863Z,3.07
2022-12-26T13:59:32.617Z,2.93
2022-12-26T14:03:17.503Z,4.47
2022-12-26T14:05:57.157Z,3.60
2022-12-26T14:09:12.330Z,3.60
2022-12-26T14:12:35.219Z,3.47
2022-12-26T14:15:28.660Z,2.70
2022-12-26T14:18:45.181Z,3.27
2022-12-26T14:21:46.798Z,3.23
2022-12-26T14:24:49.290Z,2.63
2022-12-26T14:27:57.891Z,3.90
2022-12-26T14:31:08.410Z,6.47
2022-12-26T14:34:06.908Z,4.60
2022-12-26T14:37:23.438Z,3.90
2022-12-26T14:40:35.457Z,3.50
2022-12-26T14:43:34.892Z,4.40
2022-12-26T14:46:26.302Z,5.33
2022-12-26T14:48:59.678Z,4.60
2022-12-26T14:51:37.369Z,5.93
2022-12-26T14:54:37.663Z,5.93
2022-12-26T14:57:44.319Z,4.27
2022-12-26T15:00:23.185Z,4.03
2022-12-26T15:03:24.687Z,4.40
2022-12-26T15:05:54.215Z,3.93
2022-12-26T15:09:32.126Z,4.63
2022-12-26T15:12:23.301Z,5.00
2022-12-26T15:15:47.758Z,3.60
2022-12-26T15:19:31.111Z,6.20
2022-12-26T15:22:09.441Z,4.77
2022-12-26T15:25:19.298Z,4.17
2022-12-26T15:28:32.285Z,3.80
2022-12-26T15:31:45.268Z,4.50
2022-12-26T15:34:37.401Z,9.03
2022-12-26T15:37:34.519Z,4.73
2022-12-26T15:40:24.483Z,10.70
2022-12-26T15:43:39.798Z,36.90
2022-12-26T15:46:45.710Z,36.03
2022-12-26T15:50:00.338Z,9.87
2022-12-26T15:53:02.073Z,6.43
2022-12-26T15:56:22.165Z,4.03
2022-12-26T15:59:42.719Z,6.40
2022-12-26T16:02:28.084Z,4.87
2022-12-26T16:05:37.651Z,4.47
2022-12-26T16:08:51.789Z,4.43
2022-12-26T16:11:50.312Z,7.63
2022-12-26T16:14:39.406Z,15.57
2022-12-26T16:17:13.472Z,5.07
2022-12-26T16:19:43.743Z,7.10
2022-12-26T16:22:48.800Z,6.00
2022-12-26T16:25:26.051Z,9.10
2022-12-26T16:27:59.990Z,11.80
2022-12-26T16:30:35.822Z,3.90
2022-12-26T16:33:04.320Z,6.10
2022-12-26T16:35:39.942Z,6.13
2022-12-26T16:38:18.168Z,4.27
2022-12-26T16:40:51.460Z,5.50
2022-12-26T16:43:18.496Z,4.37
2022-12-26T16:45:51.171Z,4.77
2022-12-26T16:48:23.876Z,4.73
2022-12-26T16:51:00.617Z,4.23
2022-12-26T16:53:40.169Z,5.73
2022-12-26T16:56:33.598Z,5.57
2022-12-26T16:59:18.728Z,5.60
2022-12-26T17:02:00.488Z,11.83
2022-12-26T17:04:30.315Z,6.63
2022-12-26T17:07:06.283Z,9.43
2022-12-26T17:09:49.566Z,9.40
2022-12-26T17:12:27.902Z,6.33
2022-12-26T17:14:56.946Z,7.93
2022-12-26T17:17:23.784Z,8.13
2022-12-26T17:19:54.902Z,6.10
2022-12-26T17:22:37.290Z,7.07
2022-12-26T17:25:28.029Z,5.83
2022-12-26T17:28:17.761Z,7.23
2022-12-26T17:30:53.265Z,6.17
2022-12-26T17:33:28.665Z,6.83
2022-12-26T17:38:51.998Z,6.70
2022-12-26T17:41:19.402Z,5.43
2022-12-26T17:43:47.919Z,6.80
2022-12-26T17:46:17.943Z,3.70
2022-12-26T17:48:45.719Z,2.60
2022-12-26T17:51:17.897Z,3.80
2022-12-26T17:53:51.292Z,1.23
2022-12-26T17:56:24.206Z,3.83
2022-12-26T17:58:51.568Z,2.10
2022-12-26T18:01:21.677Z,4.20
2022-12-26T18:03:51.994Z,2.40
2022-12-26T18:06:19.894Z,5.53
2022-12-26T18:08:47.085Z,9.03
2022-12-26T18:11:15.125Z,2.60
2022-12-26T18:13:43.124Z,1.67
2022-12-26T18:16:18.901Z,3.17
2022-12-26T18:18:48.403Z,1.97
2022-12-26T18:21:16.716Z,4.07
2022-12-26T18:23:44.343Z,4.70
2022-12-26T18:26:32.066Z,4.67
2022-12-26T18:28:59.188Z,3.53
2022-12-26T18:31:27.892Z,3.40
2022-12-26T18:33:55.881Z,5.20
2022-12-26T18:36:31.657Z,4.47
2022-12-26T18:38:58.991Z,1.70
2022-12-26T18:41:28.057Z,2.13
2022-12-26T18:43:55.180Z,4.77
2022-12-26T18:46:26.115Z,1.90
2022-12-26T18:48:56.541Z,2.90
2022-12-26T18:51:25.881Z,3.90
2022-12-26T18:53:53.094Z,2.60
2022-12-26T18:56:23.140Z,2.60
2022-12-26T18:58:57.579Z,3.73
2022-12-26T19:01:25.872Z,2.97
2022-12-26T19:03:53.967Z,2.73
2022-12-26T19:06:28.969Z,1.20
2022-12-26T19:08:57.101Z,1.80
2022-12-26T19:11:24.582Z,3.73
2022-12-26T19:13:51.695Z,1.10
2022-12-26T19:16:19.283Z,1.80
2022-12-26T19:18:46.379Z,2.63
2022-12-26T19:21:16.625Z,5.37
2022-12-26T19:23:47.690Z,3.63
2022-12-26T19:26:19.150Z,2.63
2022-12-26T19:28:55.565Z,5.90
2022-12-26T19:31:23.606Z,2.53
2022-12-26T19:33:50.966Z,3.93
2022-12-26T19:36:18.236Z,11.47
2022-12-26T19:38:45.443Z,5.73
2022-12-26T19:41:14.961Z,8.33
2022-12-26T19:43:42.803Z,5.87
2022-12-26T19:46:17.015Z,2.53
2022-12-26T19:48:44.603Z,1.40
2022-12-26T19:51:15.872Z,1.40
2022-12-26T19:53:44.782Z,1.93
2022-12-26T19:56:28.254Z,4.63
2022-12-26T19:58:56.907Z,1.63
2022-12-26T20:01:31.756Z,4.77
2022-12-26T20:04:02.751Z,2.57
2022-12-26T20:06:33.614Z,1.60
2022-12-26T20:09:09.485Z,3.77
2022-12-26T20:11:43.011Z,3.03
2022-12-26T20:14:19.120Z,2.37
2022-12-26T20:17:08.782Z,4.97
2022-12-26T20:19:37.022Z,3.90
2022-12-26T20:22:05.721Z,2.20
2022-12-26T20:24:33.761Z,2.90
2022-12-26T20:27:01.241Z,1.97
2022-12-26T20:29:28.409Z,1.73
2022-12-26T20:31:55.479Z,1.87
2022-12-26T20:34:23.198Z,3.00
2022-12-26T20:36:50.386Z,2.47
2022-12-26T20:39:19.593Z,1.67
2022-12-26T20:41:47.248Z,4.73
2022-12-26T20:44:16.431Z,3.67
2022-12-26T20:46:44.818Z,1.73
2022-12-26T20:49:12.593Z,1.60
2022-12-26T20:51:43.991Z,4.30
2022-12-26T20:54:14.058Z,4.63
2022-12-26T20:56:42.209Z,3.10
2022-12-26T20:59:10.232Z,2.87
2022-12-26T21:01:39.370Z,7.17
2022-12-26T21:04:08.047Z,8.43
2022-12-26T21:06:38.025Z,6.50
2022-12-26T21:09:09.269Z,4.07
2022-12-26T21:11:39.972Z,9.77
2022-12-26T21:14:21.920Z,10.57
2022-12-26T21:16:57.056Z,11.10
2022-12-26T21:19:28.129Z,5.67
2022-12-26T21:21:56.503Z,5.30
2022-12-26T21:24:29.395Z,9.43
2022-12-26T21:26:57.261Z,6.03
2022-12-26T21:29:33.242Z,8.67
2022-12-26T21:32:03.065Z,6.67
2022-12-26T21:34:33.010Z,9.63
2022-12-26T21:37:19.284Z,5.57
2022-12-26T21:39:47.432Z,11.47
2022-12-26T21:42:14.605Z,6.73
2022-12-26T21:44:41.797Z,5.13
2022-12-26T21:47:09.228Z,8.53
2022-12-26T21:49:37.291Z,5.00
2022-12-26T21:52:06.316Z,9.57
2022-12-26T21:54:52.527Z,4.53
2022-12-26T21:57:20.782Z,9.73
2022-12-26T21:59:57.071Z,12.50
2022-12-26T22:02:53.839Z,8.00
2022-12-26T22:05:28.111Z,10.77
2022-12-26T22:08:01.605Z,12.23
2022-12-26T22:10:51.387Z,8.97
2022-12-26T22:13:20.427Z,13.13
2022-12-26T22:16:05.358Z,12.00
2022-12-26T22:18:46.599Z,5.77
2022-12-26T22:21:21.560Z,7.37
2022-12-26T22:23:51.313Z,8.67
2022-12-26T22:26:21.477Z,10.13
2022-12-26T22:28:49.851Z,10.53
2022-12-26T22:31:25.505Z,9.33
2022-12-26T22:34:03.464Z,12.50
2022-12-26T22:36:32.319Z,8.43
2022-12-26T22:39:00.416Z,8.87
2022-12-26T22:41:28.736Z,12.73
2022-12-26T22:43:56.260Z,14.10
2022-12-26T22:46:23.490Z,10.27
2022-12-26T22:48:51.044Z,9.30
2022-12-26T22:51:23.004Z,6.77
2022-12-26T22:53:54.263Z,10.57
2022-12-26T22:56:21.379Z,11.23
2022-12-26T22:58:54.729Z,7.33
2022-12-26T23:01:22.994Z,13.83
2022-12-26T23:03:50.316Z,7.77
2022-12-26T23:06:24.730Z,11.50
2022-12-26T23:08:56.815Z,9.07
2022-12-26T23:11:34.465Z,8.33
2022-12-26T23:14:05.908Z,12.20
2022-12-26T23:16:56.238Z,16.73
2022-12-26T23:20:05.320Z,11.30
2022-12-26T23:22:33.345Z,7.87
2022-12-26T23:25:00.462Z,7.90
2022-12-26T23:27:46.045Z,12.67
2022-12-26T23:30:20.015Z,13.73
2022-12-26T23:32:53.225Z,8.47
2022-12-26T23:35:22.632Z,11.23
2022-12-26T23:37:50.598Z,10.80
2022-12-26T23:40:20.505Z,14.10
2022-12-26T23:42:47.763Z,5.77
2022-12-26T23:45:16.208Z,12.17
2022-12-26T23:47:45.712Z,8.07
2022-12-26T23:50:15.793Z,10.90
2022-12-26T23:52:43.837Z,11.67
2022-12-26T23:55:11.749Z,10.33
2022-12-26T23:57:38.891Z,5.33
